Terminal Aerodrome Forecast
Issued by NWS Melbourne, FL

Home | Current Version | Previous Version | Text Only | Print | Product List | Glossary On
Versions: 1 2 3 4 5 6 7 8 9 10 11 12 13 14 15 16 17 18 19 20
000
FTUS42 KMLB 240542
TAFMLB
TAF
KMLB 240542Z 2406/2506 VRB03KT P6SM FEW009 BKN140 BKN250
     FM240800 27003KT P6SM BKN009 BKN015
     FM241500 34010KT P6SM VCSH SCT010 BKN015
     FM250000 32006KT P6SM SCT008 BKN015=

USA.gov is the U.S. government's official web portal to all federal, state and local government web resources and services.